Latest Coastal Weather Observations for Truscott

IDW60701

Issued at 11:42 am WST Friday 12 February 2016 (issued every 10 minutes, with the page automatically refreshed every 10 minutes)

About coastal observations | Map of coastal stations | Coastal observations for WA | Marine services | Other Formats
Station Details ID: 001020 Name: TRUSCOTT Lat: -14.09 Lon: 126.39 Height: 51.0 m
Data from the previous 72 hours. | See also: Recent months at Truscott
Date/Time
WST
Temp

°C
Wind Pressure Rain
since 9am
mm
Weather Cloud Vis
km
Sea
Height
m
Swell
Dir
 
Speed
knots
Gust
knots
hPa Trend Height
m
Period
s
Dir
12/08:30am 30.0 W 8 - 1009.0 - 18.2 - - 10 - - - -
12/08:00am 30.0 WSW 8 - 1009.0 - 18.2 - - 10 - - - -
12/07:30am 29.0 W 5 - 1009.0 - 18.2 - - 10 - - - -
12/07:00am 28.0 WNW 4 - 1009.0 - 18.2 - - 10 - - - -
12/06:30am 27.0 N 3 - 1009.0 - 18.2 - - 10 - - - -
12/06:00am 26.8 CALM 0 - 1008.2 - 18.2 - - 10 - - - -
12/05:30am 27.0 SE 3 - 1008.0 - 18.2 - - 10 - - - -
12/05:00am 27.0 SE 5 - 1009.0 - 18.2 - Partly cloudy 10 - - - -
12/04:30am 27.0 SE 5 - 1008.0 - 18.2 - Partly cloudy 10 - - - -
12/04:00am 26.0 E 3 - 1008.0 - 18.2 - Partly cloudy 10 - - - -
12/03:30am 26.0 CALM 0 - 1007.0 - 18.2 - - 10 - - - -
12/03:00am 27.1 S 4 - 1006.8 - 18.2 - - 10 - - - -
12/02:30am 27.0 S 4 - 1007.0 - 18.2 - Partly cloudy 10 - - - -
12/02:00am 27.0 S 4 - 1007.0 - 18.2 - Partly cloudy 10 - - - -
12/01:30am 27.0 S 3 - 1007.0 - 18.2 - - 10 - - - -
12/01:00am 27.0 W 3 - 1007.0 - 18.2 - - 10 - - - -
12/12:30am 27.0 WSW 4 - 1007.0 - 18.2 - - 10 - - - -
12/12:00am 27.3 W 5 - 1006.9 - 18.2 - - 10 - - - -
 
Date/Time
WST
Temp

°C
Wind Pressure Rain
since 9am
mm
Weather Cloud Vis
km
Sea
Height
m
Swell
Dir
 
Speed
knots
Gust
knots
hPa Trend Height
m
Period
s
Dir
11/11:30pm 27.0 W 4 - 1008.0 - 18.2 - - 10 - - - -
11/11:00pm 27.0 WSW 5 - 1008.0 - 18.2 - - 10 - - - -
11/10:30pm 27.0 WSW 6 - 1008.0 - 18.2 - - 10 - - - -
11/10:00pm 27.0 W 6 - 1008.0 - 18.2 - - 10 - - - -
11/09:30pm 27.0 WSW 5 - 1008.0 - 18.2 - - 10 - - - -
11/09:00pm 26.9 W 5 - 1007.6 - 18.2 - - 10 - - - -
11/08:30pm 27.0 SSE 3 - 1008.0 - 18.2 - - 10 - - - -
11/08:00pm 27.0 SE 5 - 1009.0 - 18.2 - Partly cloudy 8 - - - -
11/07:30pm 27.0 SSE 7 - 1008.0 - 18.2 - Partly cloudy 10 - - - -
11/07:00pm 27.0 SW 6 - 1007.0 - 18.2 - Partly cloudy 10 - - - -
11/06:30pm 27.0 W 8 - 1006.0 - 18.2 - - 10 - - - -
11/06:00pm 26.4 WNW 9 - 1005.5 - 18.2 - - 10 - - - -
11/05:30pm 25.0 W 10 - 1005.0 - 18.2 - Partly cloudy 10 - - - -
11/05:00pm 25.0 NNW 7 - 1006.0 - 18.0 - Partly cloudy 10 - - - -
11/04:30pm 25.0 N 8 - 1005.0 - 17.2 - Partly cloudy 10 - - - -
11/04:00pm 25.0 WNW 7 - 1005.0 - 16.8 - Partly cloudy 10 - - - -
11/03:46pm 24.0 W 11 - 1005.0 - 16.8 - Partly cloudy 10 - - - -
11/03:36pm 23.0 ENE 4 - 1006.0 - 16.8 - Partly cloudy 5 - - - -
11/03:30pm 23.0 E 5 24 1007.0 - 16.4 - Partly cloudy 2 - - - -
11/03:23pm 23.0 ESE 17 34 1007.0 - 14.4 - Partly cloudy 0.8 - - - -
11/03:21pm 23.0 ESE 19 34 1007.0 - 13.2 - Partly cloudy 0.7 - - - -
11/03:20pm 23.0 ESE 20 34 1007.0 - 13.0 - Partly cloudy 0.7 - - - -
11/03:11pm 24.0 SSE 18 31 1006.0 - 1.4 - Partly cloudy 4 - - - -
11/03:10pm 24.0 SSE 19 31 1006.0 - 0.8 - Partly cloudy 7 - - - -
11/03:01pm 29.0 SSE 15 26 1006.0 - 0.0 - Partly cloudy 10 - - - -
11/03:00pm 30.1 SSE 14 26 1005.4 - 0.0 - Mostly clear 10 - - - -
11/02:57pm 34.0 SSE 10 22 1005.0 - 0.0 - - 10 - - - -
11/02:30pm 35.0 WNW 10 - 1003.0 - 0.0 - - 10 - - - -
11/02:00pm 34.0 WNW 12 - 1003.0 - 0.0 - - 10 - - - -
11/01:30pm 34.0 WNW 10 - 1004.0 - 0.0 - - 10 - - - -
11/01:00pm 33.0 WNW 10 - 1004.0 - 0.0 - - 10 - - - -
11/12:30pm 33.0 WNW 9 - 1005.0 - 0.0 - - 10 - - - -
11/12:00pm 33.8 WNW 8 - 1004.9 - 0.0 - - 10 - - - -
11/11:30am 34.0 W 8 - 1005.0 - 0.0 - - 10 - - - -
11/11:00am 34.0 W 8 - 1006.0 - 0.0 - - 10 - - - -
11/10:30am 32.0 WNW 8 - 1006.0 - 0.0 - - 10 - - - -
11/10:00am 32.0 WNW 8 - 1007.0 - 0.0 - - 10 - - - -
11/09:30am 32.4 WSW 9 13 1007.2 - 0.0 - - 10 - - - -
11/09:00am 31.6 SW 8 - 1007.0 - 21.0 - - - - - - -
11/08:30am 31.0 SW 11 - 1007.0 - 21.0 - - 10 - - - -
11/08:00am 30.0 WSW 8 - 1007.0 - 21.0 - - 10 - - - -
11/07:30am 30.0 SW 6 - 1007.0 - 21.0 - - 10 - - - -
11/07:00am 29.0 SSW 5 - 1007.0 - 21.0 - - 10 - - - -
11/06:30am 29.0 SSW 5 - 1007.0 - 21.0 - - 10 - - - -
11/06:00am 28.4 SW 6 - 1006.2 - 21.0 - - 10 - - - -
11/05:30am 28.0 SW 5 - 1006.0 - 21.0 - - 10 - - - -
11/05:00am 28.0 WNW 7 - 1005.0 - 21.0 - - 10 - - - -
11/04:30am 28.0 W 5 - 1006.0 - 21.0 - - 10 - - - -
11/04:00am 28.0 SSW 4 - 1006.0 - 21.0 - Partly cloudy 10 - - - -
11/03:30am 28.0 S 6 - 1007.0 - 21.0 - Partly cloudy 10 - - - -
11/03:00am 29.0 SSW 7 - 1006.3 - 21.0 - Partly cloudy 10 - - - -
11/02:30am 29.0 WSW 8 - 1005.0 - 21.0 - - 10 - - - -
11/02:00am 29.0 WSW 9 - 1006.0 - 21.0 - Partly cloudy 10 - - - -
11/01:30am 29.0 WSW 9 - 1006.0 - 21.0 - - 10 - - - -
11/01:00am 29.0 W 9 - 1006.0 - 21.0 - - 10 - - - -
11/12:30am 29.0 SW 9 - 1006.0 - 21.0 - - 10 - - - -
11/12:00am 28.9 WSW 10 - 1005.9 - 21.0 - Mostly clear 10 - - - -
 
Date/Time
WST
Temp

°C
Wind Pressure Rain
since 9am
mm
Weather Cloud Vis
km
Sea
Height
m
Swell
Dir
 
Speed
knots
Gust
knots
hPa Trend Height
m
Period
s
Dir
10/10:30pm 29.0 SW 10 - 1007.0 - 21.0 - - 10 - - - -
10/10:00pm 29.0 SW 9 - 1007.0 - 21.0 - - 10 - - - -
10/09:00pm 28.2 SW 8 - 1006.6 - 21.0 - - - - - - -
10/05:49pm 24.0 N 9 - 1006.0 - 21.0 - Partly cloudy 10 - - - -
10/05:44pm 24.0 N 8 - 1006.0 - 21.0 - Partly cloudy 10 - - - -
10/05:30pm 23.0 NNE 9 20 1006.0 - 20.6 - Partly cloudy 2 - - - -
10/05:07pm 24.0 E 16 29 1007.0 - 2.0 - Partly cloudy 5 - - - -
10/05:06pm 25.0 E 15 29 1007.0 - 1.2 - Partly cloudy 6 - - - -
10/05:00pm 28.0 ENE 12 - 1007.0 - 0.0 - Partly cloudy 10 - - - -
10/04:49pm 29.0 E 15 - 1006.0 - 0.0 - Partly cloudy 10 - - - -
10/04:30pm 34.0 W 10 - 1004.0 - 0.0 - - 10 - - - -
10/04:00pm 34.0 W 11 - 1004.0 - 0.0 - - 10 - - - -
10/03:30pm 34.0 W 13 - 1003.0 - 0.0 - - 10 - - - -
10/03:00pm 34.0 W 11 - 1003.8 - 0.0 - - 10 - - - -
10/02:30pm 34.0 W 12 - 1004.0 - 0.0 - - 10 - - - -
10/02:00pm 34.0 W 11 - 1005.0 - 0.0 - - 10 - - - -
10/01:30pm 34.0 WNW 11 - 1005.0 - 0.0 - - 10 - - - -
10/01:00pm 34.0 W 10 - 1005.0 - 0.0 - - 10 - - - -
10/12:30pm 35.0 W 11 - 1006.0 - 0.0 - - 10 - - - -
10/12:00pm 34.6 WNW 10 - 1005.7 - 0.0 - - 10 - - - -
10/11:30am 34.0 WNW 9 - 1006.0 - 0.0 - - 10 - - - -
10/11:00am 35.0 WNW 9 - 1007.0 - 0.0 - - 10 - - - -
10/10:30am 34.0 W 9 - 1007.0 - 0.0 - - 10 - - - -
10/10:00am 34.0 W 8 - 1007.0 - 0.0 - - 10 - - - -
10/09:30am 33.0 W 7 - 1007.0 - 0.0 - - 10 - - - -
10/09:00am 32.5 W 6 - 1007.4 - 0.0 - - 10 - - - -
10/08:30am 32.0 WSW 7 - 1008.0 - 0.0 - - 10 - - - -
10/08:00am 31.0 W 5 - 1008.0 - 0.0 - - 10 - - - -
10/07:30am 29.0 WSW 4 - 1008.0 - 0.0 - - 10 - - - -
10/07:00am 29.0 W 4 - 1008.0 - 0.0 - - 10 - - - -
10/06:30am 28.0 CALM 0 - 1007.0 - 0.0 - - 10 - - - -
10/06:00am 27.4 CALM 0 - 1006.7 - 0.0 - - 10 - - - -
10/05:30am 27.0 CALM 0 - 1007.0 - 0.0 - - 10 - - - -
10/05:00am 27.0 ESE 2 - 1007.0 - 0.0 - - 10 - - - -
10/04:30am 27.0 ESE 3 - 1006.0 - 0.0 - - 10 - - - -
10/04:00am 28.0 ESE 4 - 1006.0 - 0.0 - - 10 - - - -
10/03:30am 28.0 SE 5 - 1006.0 - 0.0 - - 10 - - - -
10/03:00am 27.6 SE 4 - 1005.7 - 0.0 - - 10 - - - -
10/02:30am 28.0 ESE 4 - 1006.0 - 0.0 - - 10 - - - -
10/02:00am 28.0 N 4 - 1006.0 - 0.0 - - 7 - - - -
10/01:30am 28.0 NW 4 - 1006.0 - 0.0 - Partly cloudy 10 - - - -
10/01:00am 28.0 W 5 - 1006.0 - 0.0 - Partly cloudy 10 - - - -
10/12:30am 28.0 SW 5 - 1007.0 - 0.0 - - 10 - - - -
10/12:00am 28.2 SSW 7 - 1007.2 - 0.0 - - 10 - - - -
 
Date/Time
WST
Temp

°C
Wind Pressure Rain
since 9am
mm
Weather Cloud Vis
km
Sea
Height
m
Swell
Dir
 
Speed
knots
Gust
knots
hPa Trend Height
m
Period
s
Dir
09/11:30pm 29.0 SSW 7 - 1008.0 - 0.0 - - 10 - - - -
09/11:00pm 29.0 S 10 - 1009.0 - 0.0 - Partly cloudy 10 - - - -
09/10:39pm 31.0 S 15 - 1009.0 - 0.0 - Partly cloudy 10 - - - -
09/10:30pm 31.0 SW 8 - 1009.0 - 0.0 - Partly cloudy 10 - - - -
09/10:00pm 31.0 WSW 6 - 1009.0 - 0.0 - Partly cloudy 10 - - - -
09/09:30pm 30.0 W 6 - 1009.0 - 0.0 - - 10 - - - -
09/09:00pm 30.1 W 5 - 1008.1 - 0.0 - - 10 - - - -
09/08:54pm 30.0 W 5 - 1008.0 - 0.0 - Partly cloudy 10 - - - -
09/08:43pm 30.0 W 5 - 1008.0 - 0.0 - - 5 - - - -
09/08:30pm 30.0 W 6 - 1008.0 - 0.0 - - 10 - - - -
09/08:00pm 31.0 WSW 5 - 1008.0 - 0.0 - Partly cloudy 10 - - - -
09/07:30pm 31.0 W 7 - 1008.0 - 0.0 - Partly cloudy 10 - - - -
09/07:00pm 31.0 W 7 - 1007.0 - 0.0 - Partly cloudy 10 - - - -
09/06:30pm 32.0 WNW 7 - 1007.0 - 0.0 - - 10 - - - -
09/06:00pm 32.0 W 7 - 1006.3 - 0.0 - - 8 - - - -
09/05:30pm 33.0 NW 6 - 1006.0 - 0.0 - - 10 - - - -
09/05:00pm 33.0 NW 8 - 1006.0 - 0.0 - - 10 - - - -
09/04:30pm 33.0 NW 9 - 1005.0 - 0.0 - - 10 - - - -
09/04:00pm 34.0 NW 8 - 1005.0 - 0.0 - - 10 - - - -
09/03:30pm 34.0 NW 9 - 1005.0 - 0.0 - - 10 - - - -
09/03:00pm 34.9 NNW 8 - 1005.5 - 0.0 - - 10 - - - -
09/02:30pm 34.0 NNW 9 - 1006.0 - 0.0 - - 7 - - - -
09/02:00pm 34.0 NNW 10 - 1006.0 - 0.0 - - 10 - - - -
09/01:30pm 34.0 NNW 9 - 1006.0 - 0.0 - - 10 - - - -
09/01:00pm 34.0 NNW 9 - 1007.0 - 0.0 - - 10 - - - -
09/12:30pm 35.0 WNW 8 - 1007.0 - 0.0 - - 10 - - - -
09/12:00pm 34.3 WNW 8 - 1007.2 - 0.0 - - 10 - - - -

Other Formats:

Comma delimited format used in spreadsheet applications
http://www.bom.gov.au/fwo/IDW60701/IDW60701.95101.axf

JavaScript Object Notation format (JSON) in row-major order
http://www.bom.gov.au/fwo/IDW60701/IDW60701.95101.json